Time;durP1;ratioP1;P1;durP2;ratioP2;P2;SDS_P1;SDS_P2;PMS_P1;PMS_P2;Temp;Humidity;BMP_temperature;BMP_pressure;BME280_temperature;BME280_humidity;BME280_pressure;Samples;Min_cycle;Max_cycle;Signal;HPM_P1;HPM_P2
2023/03/14 00:01:22;;;;;;;;;11.80;10.60;;;;;9.17;22.73;98999.97;5029301;28;8860;-76
2023/03/14 00:03:51;;;;;;;;;15.80;13.60;;;;;9.29;23.04;98994.44;5007468;28;8834;-77
2023/03/14 00:06:21;;;;;;;;;14.20;14.20;;;;;9.39;22.97;98990.69;5024369;28;8899;-76
2023/03/14 00:08:53;;;;;;;;;13.60;12.00;;;;;9.32;22.89;98983.88;5023305;28;8854;-78
2023/03/14 00:11:23;;;;;;;;;14.80;14.40;;;;;9.27;23.08;98985.72;5024467;28;8854;-80
2023/03/14 00:13:52;;;;;;;;;14.60;14.40;;;;;9.37;23.09;98989.88;5024416;28;8865;-76
2023/03/14 00:16:22;;;;;;;;;14.40;12.60;;;;;9.41;22.86;98983.63;5007629;28;8845;-74
2023/03/14 00:18:51;;;;;;;;;15.40;14.00;;;;;9.40;23.12;98975.78;5024028;28;8845;-77
2023/03/14 00:21:20;;;;;;;;;9.40;8.80;;;;;9.28;23.22;98969.09;4978160;28;8854;-77
2023/03/14 00:23:49;;;;;;;;;14.40;14.00;;;;;9.38;23.17;98975.84;5028127;28;8853;-77
2023/03/14 00:26:21;;;;;;;;;18.60;15.20;;;;;9.32;23.55;98985.63;5027432;28;8862;-77
2023/03/14 00:28:53;;;;;;;;;13.80;13.00;;;;;9.43;23.39;98981.84;5028194;28;8885;-76
2023/03/14 00:31:22;;;;;;;;;15.40;15.20;;;;;9.40;23.41;98971.44;5027556;28;8864;-77
2023/03/14 00:33:53;;;;;;;;;12.00;11.80;;;;;9.33;23.70;98975.09;5010800;28;8854;-77
2023/03/14 00:36:23;;;;;;;;;14.60;14.60;;;;;9.28;23.78;98970.88;5050174;28;8899;-74
2023/03/14 00:38:52;;;;;;;;;14.20;14.20;;;;;9.31;23.64;98960.28;5031955;28;8880;-76
2023/03/14 00:41:24;;;;;;;;;18.00;15.40;;;;;9.25;23.77;98950.81;5048866;28;8876;-76
2023/03/14 00:43:53;;;;;;;;;14.80;13.80;;;;;9.20;23.72;98952.72;5064498;28;8877;-79
2023/03/14 00:46:22;;;;;;;;;14.00;12.00;;;;;9.17;23.86;98948.38;5050197;28;8868;-76
2023/03/14 00:48:51;;;;;;;;;14.40;13.60;;;;;9.06;24.14;98942.53;5032706;28;8849;-77
2023/03/14 00:51:20;;;;;;;;;14.40;14.00;;;;;9.04;24.32;98937.38;5065277;28;8844;-76
2023/03/14 00:53:48;;;;;;;;;15.20;15.20;;;;;9.07;24.21;98932.94;5048165;28;8857;-77
2023/03/14 00:56:17;;;;;;;;;15.00;14.60;;;;;8.95;24.73;98931.47;5050101;28;8853;-77
2023/03/14 00:58:48;;;;;;;;;15.60;14.80;;;;;8.97;24.69;98933.16;5049840;28;8860;-78
2023/03/14 01:01:19;;;;;;;;;14.40;13.60;;;;;8.90;24.41;98926.34;5068045;28;8874;-76
2023/03/14 01:03:48;;;;;;;;;14.20;13.80;;;;;8.93;24.65;98923.66;5046795;28;8894;-76
2023/03/14 01:06:19;;;;;;;;;15.60;15.00;;;;;8.87;24.83;98922.94;5058720;28;9589;-77
2023/03/14 01:08:48;;;;;;;;;20.00;18.00;;;;;8.66;24.79;98912.03;5051240;28;8938;-75
2023/03/14 01:11:20;;;;;;;;;16.00;13.80;;;;;8.75;24.91;98908.38;5051530;28;8861;-80
2023/03/14 01:13:50;;;;;;;;;15.40;14.00;;;;;8.74;25.14;98898.75;5051852;28;8942;-76
2023/03/14 01:16:22;;;;;;;;;15.60;14.20;;;;;8.71;25.19;98901.47;5048518;28;8920;-76
2023/03/14 01:18:50;;;;;;;;;15.80;13.40;;;;;8.67;25.17;98895.44;5004368;28;9582;-76
2023/03/14 01:21:22;;;;;;;;;18.20;17.00;;;;;8.73;25.24;98890.06;5052941;28;8875;-76
2023/03/14 01:23:52;;;;;;;;;14.50;14.00;;;;;8.77;25.14;98890.84;5049520;28;8965;-78
2023/03/14 01:26:23;;;;;;;;;17.40;14.40;;;;;8.65;24.95;98876.28;5050086;28;8848;-76
2023/03/14 01:28:55;;;;;;;;;18.00;15.00;;;;;8.70;25.14;98882.25;5065454;28;8859;-79
2023/03/14 01:31:26;;;;;;;;;14.60;14.60;;;;;8.64;25.27;98874.53;5046376;28;8886;-80
2023/03/14 01:33:55;;;;;;;;;18.80;15.40;;;;;8.70;25.33;98870.91;5047681;28;8883;-76
2023/03/14 01:36:24;;;;;;;;;14.60;13.40;;;;;8.63;25.27;98867.59;5065078;28;8853;-77
2023/03/14 01:38:53;;;;;;;;;16.80;15.00;;;;;8.61;24.93;98864.13;5048528;28;9541;-77
2023/03/14 01:41:24;;;;;;;;;13.20;11.80;;;;;8.48;25.04;98855.72;5031823;28;8848;-77
2023/03/14 01:43:56;;;;;;;;;20.00;17.80;;;;;8.50;24.97;98860.94;5031653;28;9008;-75
2023/03/14 01:46:31;;;;;;;;;19.20;18.00;;;;;8.48;25.28;98858.34;4993507;28;9720;-77
2023/03/14 01:49:04;;;;;;;;;14.00;14.00;;;;;8.54;25.29;98850.34;5044105;28;8875;-77
2023/03/14 01:51:42;;;;;;;;;14.20;13.80;;;;;8.44;25.42;98852.31;4989392;28;8879;-77
2023/03/14 01:54:17;;;;;;;;;12.20;11.80;;;;;8.46;25.56;98839.19;5047601;28;8841;-77
2023/03/14 01:56:50;;;;;;;;;14.80;14.80;;;;;8.40;25.05;98848.06;5014234;28;8883;-79
2023/03/14 01:59:21;;;;;;;;;13.20;12.80;;;;;8.53;24.74;98838.13;5047201;28;8848;-76
2023/03/14 02:01:52;;;;;;;;;17.40;16.00;;;;;8.41;25.05;98843.66;5081019;28;8941;-80
2023/03/14 02:04:21;;;;;;;;;19.25;18.50;;;;;8.49;24.80;98849.56;5063410;28;8849;-77
2023/03/14 02:06:56;;;;;;;;;15.20;15.20;;;;;8.61;24.97;98851.03;5047696;28;9661;-76
2023/03/14 02:09:32;;;;;;;;;20.00;16.80;;;;;8.56;24.79;98842.44;5047930;28;8956;-77
2023/03/14 02:12:02;;;;;;;;;12.80;12.80;;;;;8.50;25.14;98845.22;5048054;28;8848;-79
2023/03/14 02:14:47;;;;;;;;;17.60;16.00;;;;;8.37;24.72;98839.41;5017434;28;9696;-75
2023/03/14 02:17:45;;;;;;;;;13.00;13.00;;;;;8.55;24.81;98838.94;4967258;28;8860;-79
2023/03/14 02:20:31;;;;;;;;;19.00;15.40;;;;;8.51;25.22;98831.22;4950430;28;8889;-75
2023/03/14 02:23:01;;;;;;;;;17.60;15.60;;;;;8.49;25.15;98819.91;4966941;28;9733;-77
2023/03/14 02:25:40;;;;;;;;;15.40;15.20;;;;;8.51;25.27;98820.72;4966782;28;8878;-77
2023/03/14 02:28:11;;;;;;;;;15.60;14.40;;;;;8.43;24.87;98818.28;4982596;28;8892;-77
2023/03/14 02:30:40;;;;;;;;;8.00;7.80;;;;;8.42;25.46;98820.06;4951098;28;8899;-76
2023/03/14 02:33:13;;;;;;;;;18.60;17.60;;;;;8.41;25.44;98820.09;4984100;28;8887;-79
2023/03/14 02:35:49;;;;;;;;;15.40;14.00;;;;;8.33;25.60;98816.81;4950910;28;8887;-80
2023/03/14 02:38:25;;;;;;;;;14.00;13.60;;;;;8.27;25.78;98823.88;4949315;28;8849;-75
2023/03/14 02:40:54;;;;;;;;;18.80;14.00;;;;;8.29;25.26;98820.34;4970128;28;8907;-78
2023/03/14 02:43:25;;;;;;;;;17.00;13.40;;;;;8.30;25.52;98820.34;4970381;28;8852;-78
2023/03/14 02:45:59;;;;;;;;;16.40;16.40;;;;;8.11;25.90;98822.47;4970430;28;8849;-78
2023/03/14 02:48:32;;;;;;;;;16.75;15.50;;;;;8.23;26.02;98834.44;4991754;28;8902;-77
2023/03/14 02:51:02;;;;;;;;;18.25;17.25;;;;;8.28;25.24;98843.03;4950763;28;8989;-75
2023/03/14 02:53:33;;;;;;;;;16.20;14.80;;;;;8.30;25.13;98836.03;4966423;28;8961;-79
2023/03/14 02:56:08;;;;;;;;;0.20;0.20;;;;;8.27;25.55;98825.63;5047156;28;8971;-79
2023/03/14 02:58:40;;;;;;;;;16.50;15.50;;;;;8.33;25.78;98820.28;5045958;28;8938;-76
2023/03/14 03:01:29;;;;;;;;;19.00;18.25;;;;;8.22;25.59;98819.63;5079791;28;9375;-76
2023/03/14 03:03:59;;;;;;;;;17.00;14.00;;;;;8.18;25.58;98813.59;5032375;28;8868;-77
2023/03/14 03:06:28;;;;;;;;;19.25;18.00;;;;;8.11;25.87;98808.53;5059937;28;8888;-76
2023/03/14 03:08:57;;;;;;;;;20.50;17.25;;;;;8.05;26.18;98818.25;5047172;28;8884;-78
2023/03/14 03:11:26;;;;;;;;;18.25;17.75;;;;;7.86;25.73;98807.31;5042773;28;9214;-75
2023/03/14 03:13:56;;;;;;;;;18.50;16.50;;;;;7.77;25.95;98812.75;5028677;28;8851;-77
2023/03/14 03:16:26;;;;;;;;;17.25;15.75;;;;;7.99;26.25;98817.53;5043486;28;8884;-75
2023/03/14 03:18:55;;;;;;;;;15.00;14.75;;;;;8.13;25.41;98823.31;5060609;28;8859;-77
2023/03/14 03:21:24;;;;;;;;;18.50;18.00;;;;;8.11;25.77;98825.09;5012129;28;8916;-77
2023/03/14 03:23:53;;;;;;;;;16.75;16.75;;;;;8.02;26.23;98826.19;5047742;28;8843;-77
2023/03/14 03:26:21;;;;;;;;;17.00;16.00;;;;;7.98;26.36;98824.50;5062586;28;8885;-76
2023/03/14 03:28:52;;;;;;;;;17.75;16.25;;;;;7.95;25.74;98813.25;5028312;28;8855;-79
2023/03/14 03:31:22;;;;;;;;;16.75;16.75;;;;;7.80;26.74;98817.94;5043165;28;8870;-80
2023/03/14 03:33:51;;;;;;;;;19.40;16.20;;;;;7.85;26.24;98820.44;5026018;28;8863;-78
2023/03/14 03:36:22;;;;;;;;;18.00;16.75;;;;;7.87;26.25;98809.06;5059235;28;8958;-79
2023/03/14 03:38:51;;;;;;;;;9.50;8.25;;;;;7.70;26.09;98811.16;5062782;28;8849;-78
2023/03/14 03:41:20;;;;;;;;;19.75;15.75;;;;;7.73;25.93;98805.88;5029344;28;8864;-78
2023/03/14 03:43:51;;;;;;;;;17.00;15.00;;;;;7.72;26.63;98806.78;5012110;28;8848;-77
2023/03/14 03:46:21;;;;;;;;;17.50;13.75;;;;;7.87;26.51;98816.91;5026516;28;8863;-79
2023/03/14 03:48:55;;;;;;;;;16.80;16.00;;;;;7.99;26.10;98821.00;5064213;28;8951;-78
2023/03/14 03:51:25;;;;;;;;;20.00;18.25;;;;;7.98;26.38;98831.50;5077815;28;8884;-76
2023/03/14 03:53:55;;;;;;;;;17.25;16.50;;;;;8.01;25.91;98827.06;5101498;28;8849;-78
2023/03/14 03:56:29;;;;;;;;;17.25;17.00;;;;;8.19;25.62;98825.78;5055688;28;8878;-78
2023/03/14 03:58:58;;;;;;;;;19.25;16.75;;;;;8.04;26.34;98844.44;5054993;28;8830;-78
2023/03/14 04:01:28;;;;;;;;;15.25;14.50;;;;;8.16;25.88;98836.34;5105724;28;8858;-77
2023/03/14 04:04:00;;;;;;;;;22.00;19.00;;;;;8.27;25.38;98838.72;5104539;28;8840;-77
2023/03/14 04:06:29;;;;;;;;;15.75;13.50;;;;;8.35;25.24;98839.44;5071563;28;8863;-77
2023/03/14 04:09:00;;;;;;;;;18.75;17.50;;;;;8.33;25.40;98828.13;5088171;28;9008;-78
2023/03/14 04:11:39;;;;;;;;;18.50;17.00;;;;;8.30;25.71;98819.44;5071576;28;9786;-77
2023/03/14 04:14:25;;;;;;;;;24.50;21.50;;;;;8.49;25.80;98807.66;5071909;28;8861;-79
2023/03/14 04:17:16;;;;;;;;;20.75;17.75;;;;;8.14;25.71;98811.09;5088911;28;9004;-77
2023/03/14 04:19:45;;;;;;;;;21.25;19.75;;;;;8.21;25.72;98817.91;5073227;28;8967;-77
2023/03/14 04:22:14;;;;;;;;;18.75;16.00;;;;;8.16;26.00;98809.31;5066627;28;8859;-79
2023/03/14 04:24:52;;;;;;;;;17.50;16.00;;;;;8.20;25.83;98819.66;5068426;28;8894;-76
2023/03/14 04:27:22;;;;;;;;;35.00;30.75;;;;;8.26;25.55;98802.94;5051647;28;9605;-79
2023/03/14 04:29:51;;;;;;;;;23.00;21.50;;;;;8.29;25.63;98792.41;5068418;28;8832;-78
2023/03/14 04:32:28;;;;;;;;;19.00;17.75;;;;;8.03;25.66;98791.25;5034887;28;8870;-78
2023/03/14 04:34:59;;;;;;;;;19.25;19.00;;;;;8.06;25.90;98788.56;5050171;28;8863;-80
2023/03/14 04:37:28;;;;;;;;;16.00;16.00;;;;;7.95;26.17;98785.34;5051352;28;8900;-81
2023/03/14 04:39:57;;;;;;;;;23.00;19.25;;;;;7.84;26.23;98788.19;5051160;28;8852;-76
2023/03/14 04:42:28;;;;;;;;;22.25;20.50;;;;;7.90;26.36;98778.47;5067760;28;9782;-78
2023/03/14 04:44:57;;;;;;;;;20.50;19.75;;;;;7.71;27.14;98775.41;5068109;28;8856;-77
2023/03/14 04:47:29;;;;;;;;;20.50;18.75;;;;;7.70;26.76;98774.53;5051624;28;8919;-75
2023/03/14 04:49:59;;;;;;;;;21.25;20.50;;;;;7.64;26.51;98772.91;5051099;28;8894;-76
2023/03/14 04:52:29;;;;;;;;;23.50;22.25;;;;;7.60;26.59;98783.47;5056826;28;8839;-76
2023/03/14 04:54:59;;;;;;;;;23.00;21.00;;;;;7.53;27.29;98782.72;5002685;28;8848;-77
2023/03/14 04:57:28;;;;;;;;;20.50;20.50;;;;;7.53;27.16;98774.03;5049008;28;8867;-78
2023/03/14 04:59:58;;;;;;;;;20.25;17.00;;;;;7.53;26.24;98780.13;5047699;28;8865;-78
2023/03/14 05:02:46;;;;;;;;;18.00;17.00;;;;;7.63;26.98;98775.59;5049729;28;8869;-80
2023/03/14 05:05:33;;;;;;;;;22.25;21.25;;;;;7.67;26.93;98775.47;5031759;28;8877;-76
2023/03/14 05:08:01;;;;;;;;;17.25;16.50;;;;;7.67;26.68;98769.38;5046274;28;8991;-76
2023/03/14 05:10:42;;;;;;;;;19.50;17.25;;;;;7.62;26.50;98776.47;5049228;28;8945;-77
2023/03/14 05:13:25;;;;;;;;;20.75;19.00;;;;;7.65;26.38;98771.19;5048551;28;8967;-77
2023/03/14 05:16:17;;;;;;;;;16.25;16.00;;;;;7.77;26.79;98768.28;5026828;28;8974;-78
2023/03/14 05:19:23;;;;;;;;;21.25;18.25;;;;;7.83;26.00;98759.44;4987987;28;9125;-80
2023/03/14 05:22:13;;;;;;;;;18.00;17.25;;;;;7.90;26.33;98754.94;4988201;28;8853;-77
2023/03/14 05:24:56;;;;;;;;;17.50;16.50;;;;;7.90;25.99;98753.16;4971258;28;8906;-76
2023/03/14 05:27:55;;;;;;;;;23.00;21.00;;;;;7.85;26.72;98741.94;4929559;29;8952;-78
2023/03/14 05:30:37;;;;;;;;;23.75;22.75;;;;;7.94;26.10;98744.34;4929573;29;8912;-77
2023/03/14 05:33:20;;;;;;;;;21.25;20.25;;;;;8.02;25.92;98744.16;4929132;29;8913;-79
2023/03/14 05:36:17;;;;;;;;;20.00;20.00;;;;;8.05;26.53;98728.41;4910585;29;9628;-77
2023/03/14 05:39:02;;;;;;;;;22.75;21.00;;;;;8.11;25.80;98723.00;4910748;29;8912;-77
2023/03/14 06:18:57;;;;;;;;;21.00;18.67;;;;;8.88;25.41;98688.78;4755960;29;8890;-80
2023/03/14 06:21:27;;;;;;;;;15.50;13.75;;;;;8.92;25.85;98679.94;4812511;29;8912;-80
2023/03/14 06:23:56;;;;;;;;;19.80;18.60;;;;;8.98;25.70;98677.13;4820292;29;8889;-78
2023/03/14 06:26:28;;;;;;;;;20.50;18.50;;;;;9.08;25.37;98672.47;4844710;29;8893;-78
2023/03/14 06:28:57;;;;;;;;;14.00;13.25;;;;;9.23;25.39;98679.88;4906516;29;9013;-78
2023/03/14 06:31:26;;;;;;;;;17.50;14.50;;;;;9.29;25.45;98697.22;4908522;29;8865;-81
2023/03/14 06:34:02;;;;;;;;;15.50;15.50;;;;;9.56;25.32;98687.66;4959084;28;8932;-78
2023/03/14 06:36:32;;;;;;;;;17.25;16.25;;;;;9.70;24.92;98690.75;4982677;28;8851;-77
2023/03/14 06:39:01;;;;;;;;;18.50;16.25;;;;;9.92;24.88;98697.97;5031028;28;8872;-78
2023/03/14 06:41:32;;;;;;;;;16.50;15.50;;;;;10.05;24.81;98701.03;5064450;28;8837;-77
2023/03/14 06:44:02;;;;;;;;;20.50;19.75;;;;;10.24;24.51;98703.94;5042771;28;9651;-78
2023/03/14 06:46:31;;;;;;;;;14.20;14.20;;;;;10.35;24.42;98709.69;5043844;28;8859;-79
2023/03/14 06:48:59;;;;;;;;;18.75;16.00;;;;;10.46;24.25;98699.66;5059633;28;8895;-77
2023/03/14 06:51:30;;;;;;;;;13.00;11.60;;;;;10.42;24.14;98674.41;5043181;28;8860;-78
2023/03/14 06:53:59;;;;;;;;;16.80;15.60;;;;;10.38;24.67;98678.03;5026731;28;9001;-77
2023/03/14 06:56:30;;;;;;;;;16.25;15.25;;;;;10.52;24.30;98675.81;5060056;28;8878;-78
2023/03/14 06:58:59;;;;;;;;;15.75;14.50;;;;;10.53;24.25;98695.91;5045310;28;8849;-77
2023/03/14 07:01:32;;;;;;;;;18.50;15.25;;;;;10.67;24.24;98700.72;5080179;28;8883;-77
2023/03/14 07:04:07;;;;;;;;;16.25;16.25;;;;;10.81;24.66;98697.63;5063032;28;8864;-77
2023/03/14 07:06:44;;;;;;;;;20.25;17.50;;;;;10.93;24.41;98712.09;5079946;28;8902;-79
2023/03/14 07:09:13;;;;;;;;;20.75;17.00;;;;;11.12;24.39;98704.38;5079954;28;8860;-76
2023/03/14 07:11:48;;;;;;;;;21.50;20.25;;;;;11.16;24.10;98690.19;5046252;28;8926;-79
2023/03/14 07:14:18;;;;;;;;;20.50;18.00;;;;;11.19;24.48;98695.38;5045434;28;8857;-77
2023/03/14 07:16:50;;;;;;;;;11.60;10.20;;;;;11.20;24.38;98688.31;5046327;28;8845;-78
2023/03/14 07:19:19;;;;;;;;;16.60;15.40;;;;;11.23;24.10;98691.69;5062586;28;8865;-84
2023/03/14 07:21:49;;;;;;;;;18.00;17.25;;;;;11.42;24.17;98693.63;5063740;28;8841;-82
2023/03/14 07:24:23;;;;;;;;;17.80;17.00;;;;;11.45;24.14;98698.78;5062980;28;8960;-83
2023/03/14 07:26:53;;;;;;;;;24.00;21.50;;;;;11.61;24.19;98696.41;5064413;28;8849;-82
2023/03/14 07:29:22;;;;;;;;;15.40;14.60;;;;;11.48;24.05;98694.28;5046947;28;8860;-82
2023/03/14 07:31:51;;;;;;;;;17.20;16.80;;;;;11.61;23.46;98693.78;5068651;28;8885;-82
2023/03/14 07:34:21;;;;;;;;;17.00;15.00;;;;;11.73;23.47;98691.53;5050353;28;8853;-83
2023/03/14 07:36:52;;;;;;;;;15.00;13.00;;;;;11.57;23.65;98696.53;5067459;28;8845;-85
2023/03/14 07:39:21;;;;;;;;;19.00;16.40;;;;;11.73;23.74;98683.63;5050812;28;8865;-82
2023/03/14 07:42:12;;;;;;;;;16.80;15.80;;;;;11.60;23.89;98681.53;5050444;28;8923;-81
2023/03/14 07:44:41;;;;;;;;;17.60;17.20;;;;;11.57;23.85;98667.56;5050366;28;8963;-81
2023/03/14 07:47:10;;;;;;;;;18.00;14.75;;;;;11.34;24.07;98660.56;5045167;28;8900;-82
2023/03/14 07:49:39;;;;;;;;;12.80;11.60;;;;;11.36;24.15;98652.63;5050496;28;8860;-81
2023/03/14 07:52:10;;;;;;;;;13.20;13.20;;;;;11.34;24.23;98642.16;5017513;28;8849;-83
2023/03/14 07:54:39;;;;;;;;;12.40;11.80;;;;;11.26;24.58;98628.44;5067867;28;8829;-85
2023/03/14 07:57:10;;;;;;;;;13.00;12.00;;;;;11.08;24.55;98621.25;5052556;28;8903;-83
2023/03/14 07:59:39;;;;;;;;;15.80;15.40;;;;;11.17;24.70;98627.03;5053451;28;8860;-81
2023/03/14 08:02:11;;;;;;;;;16.40;13.40;;;;;11.28;24.51;98628.41;5028182;28;8937;-80
2023/03/14 08:04:41;;;;;;;;;12.40;12.40;;;;;11.27;24.41;98617.00;5038444;28;8890;-83
2023/03/14 08:07:11;;;;;;;;;16.20;14.80;;;;;11.37;24.44;98620.16;5050270;28;8842;-86
2023/03/14 08:09:40;;;;;;;;;17.00;13.80;;;;;11.29;24.75;98619.56;5049987;28;8984;-84
2023/03/14 08:12:09;;;;;;;;;13.40;13.00;;;;;11.33;24.14;98626.44;5049673;28;8992;-84
2023/03/14 08:14:37;;;;;;;;;13.20;13.20;;;;;11.53;24.41;98634.41;5033135;28;8870;-82
2023/03/14 08:17:08;;;;;;;;;15.50;15.50;;;;;11.61;24.13;98626.19;5049526;28;8836;-85
2023/03/14 08:19:36;;;;;;;;;15.40;13.80;;;;;11.60;24.42;98632.41;5016847;28;8848;-83
2023/03/14 08:22:05;;;;;;;;;12.40;12.00;;;;;11.69;24.35;98618.00;5034936;28;8852;-85
2023/03/14 08:24:36;;;;;;;;;18.80;14.60;;;;;11.65;24.27;98619.03;5041457;28;8847;-82
2023/03/14 08:27:05;;;;;;;;;17.20;15.60;;;;;11.77;24.43;98616.78;5042968;28;8906;-84
2023/03/14 08:29:37;;;;;;;;;15.20;13.60;;;;;11.85;24.23;98613.84;5048580;28;8898;-83
2023/03/14 08:32:06;;;;;;;;;13.60;12.80;;;;;11.76;24.00;98614.19;5053124;28;8839;-81
2023/03/14 08:34:35;;;;;;;;;13.40;12.60;;;;;11.87;24.39;98609.38;5017174;28;8859;-82
2023/03/14 08:37:04;;;;;;;;;14.60;13.40;;;;;11.78;24.20;98612.34;5033142;28;9046;-84
2023/03/14 08:39:45;;;;;;;;;17.00;12.80;;;;;11.87;24.00;98621.69;5016954;28;8836;-84
2023/03/14 08:42:14;;;;;;;;;19.40;16.80;;;;;12.01;24.28;98613.22;5016980;28;8852;-82
2023/03/14 08:44:43;;;;;;;;;18.00;15.20;;;;;11.94;24.07;98621.38;5042019;28;8903;-84
2023/03/14 08:47:13;;;;;;;;;13.60;12.40;;;;;11.95;23.92;98615.16;5046091;28;8868;-83
2023/03/14 08:49:42;;;;;;;;;17.00;17.00;;;;;12.14;23.80;98609.13;5050293;28;8845;-81
2023/03/14 08:52:11;;;;;;;;;16.80;12.20;;;;;12.31;23.69;98598.72;5050574;28;8876;-83
2023/03/14 08:54:40;;;;;;;;;18.40;15.20;;;;;12.22;23.60;98596.53;5051003;28;9477;-83
2023/03/14 08:57:10;;;;;;;;;17.60;14.80;;;;;12.15;23.67;98602.97;5049825;28;8861;-80
2023/03/14 08:59:40;;;;;;;;;14.00;12.80;;;;;12.27;23.79;98596.31;5066731;28;8879;-83
2023/03/14 09:02:11;;;;;;;;;13.40;13.40;;;;;12.31;23.37;98590.81;5066700;28;8853;-85
2023/03/14 09:04:41;;;;;;;;;15.60;15.20;;;;;12.41;23.83;98586.03;5050098;28;8857;-82
2023/03/14 09:07:10;;;;;;;;;16.20;15.00;;;;;12.62;23.17;98578.94;5049659;28;8944;-83
2023/03/14 09:09:39;;;;;;;;;13.80;12.20;;;;;12.56;23.61;98578.34;5034005;28;8885;-83
2023/03/14 09:12:09;;;;;;;;;15.60;12.60;;;;;12.74;23.02;98572.25;5032861;28;8868;-82
2023/03/14 09:14:38;;;;;;;;;16.20;14.20;;;;;12.73;23.06;98571.41;5066327;28;8860;-84
2023/03/14 09:17:07;;;;;;;;;14.60;14.00;;;;;12.73;23.21;98552.06;5068357;28;8855;-82
2023/03/14 09:19:37;;;;;;;;;12.00;11.20;;;;;12.75;23.27;98547.63;5084249;28;8849;-84
2023/03/14 09:22:06;;;;;;;;;14.20;14.00;;;;;12.84;23.45;98548.94;5034190;28;8853;-83
2023/03/14 09:24:35;;;;;;;;;10.80;10.80;;;;;13.04;23.30;98553.34;5049885;28;8992;-82
2023/03/14 09:27:04;;;;;;;;;12.20;12.00;;;;;13.09;22.80;98546.91;5083078;28;8865;-84
2023/03/14 09:29:34;;;;;;;;;17.20;15.00;;;;;13.10;22.95;98538.06;5015509;28;8864;-83
2023/03/14 09:32:04;;;;;;;;;15.00;14.00;;;;;13.16;22.53;98529.00;5082532;28;8861;-82
2023/03/14 09:34:33;;;;;;;;;12.20;12.20;;;;;13.28;22.58;98525.78;5049621;28;8845;-81
2023/03/14 09:37:04;;;;;;;;;13.60;13.00;;;;;13.46;22.76;98524.00;5051792;28;8853;-82
2023/03/14 09:39:33;;;;;;;;;10.60;10.60;;;;;13.61;22.40;98521.56;5052935;28;8869;-82
2023/03/14 09:42:07;;;;;;;;;13.00;12.40;;;;;13.82;22.20;98520.50;5068104;28;8856;-82
2023/03/14 09:44:43;;;;;;;;;14.60;12.20;;;;;13.78;21.99;98518.06;5066254;28;8869;-83
2023/03/14 09:47:19;;;;;;;;;10.40;10.40;;;;;13.91;22.00;98500.69;5066677;28;9595;-83
2023/03/14 09:49:48;;;;;;;;;9.40;9.40;;;;;14.13;21.72;98504.84;5066378;28;8884;-81
2023/03/14 09:52:23;;;;;;;;;11.20;11.00;;;;;14.01;21.36;98501.91;5050051;28;8869;-84
2023/03/14 09:54:55;;;;;;;;;8.60;7.20;;;;;14.07;21.37;98498.09;5064052;28;8829;-81
2023/03/14 09:57:27;;;;;;;;;9.60;9.60;;;;;14.08;21.45;98494.53;5048889;28;8872;-81
2023/03/14 10:00:12;;;;;;;;;10.40;9.40;;;;;14.37;21.56;98485.06;5062537;28;8847;-80
2023/03/14 10:02:47;;;;;;;;;12.40;9.40;;;;;14.42;21.23;98480.38;5003004;28;8898;-81
2023/03/14 10:05:18;;;;;;;;;11.00;10.00;;;;;14.35;21.03;98473.72;5037222;28;8969;-81
2023/03/14 10:07:48;;;;;;;;;10.00;10.00;;;;;14.61;21.20;98460.88;5063613;28;8839;-83
2023/03/14 10:10:20;;;;;;;;;9.20;8.60;;;;;14.68;21.41;98452.50;5048431;28;8974;-83
2023/03/14 10:12:57;;;;;;;;;10.20;10.00;;;;;14.79;21.18;98454.59;5056227;28;8885;-84
2023/03/14 10:15:32;;;;;;;;;15.00;11.80;;;;;14.94;20.93;98444.09;5051181;28;8844;-84
2023/03/14 10:18:04;;;;;;;;;13.40;12.20;;;;;14.88;20.76;98441.78;5049977;28;8884;-82
2023/03/14 10:20:36;;;;;;;;;9.20;9.00;;;;;14.82;20.86;98435.06;5067472;28;8853;-83
2023/03/14 10:23:08;;;;;;;;;12.00;10.60;;;;;15.04;20.88;98432.91;5052532;28;8864;-81
2023/03/14 10:25:39;;;;;;;;;7.60;7.60;;;;;15.17;20.19;98425.09;5066917;28;9723;-80
2023/03/14 10:28:24;;;;;;;;;10.40;9.40;;;;;15.20;20.01;98410.81;5051596;28;8864;-82
2023/03/14 10:30:55;;;;;;;;;10.20;10.20;;;;;15.31;20.28;98426.09;5066013;28;9630;-81
2023/03/14 10:33:27;;;;;;;;;13.20;11.80;;;;;15.50;20.10;98416.13;5067373;28;8869;-82
2023/03/14 10:35:58;;;;;;;;;10.60;9.60;;;;;15.59;19.99;98414.72;5082765;28;8877;-85
2023/03/14 10:38:29;;;;;;;;;11.40;11.00;;;;;15.78;20.10;98417.16;5082628;28;8833;-84
2023/03/14 10:40:59;;;;;;;;;12.40;11.80;;;;;15.73;20.26;98393.56;5050543;28;8856;-82
2023/03/14 10:43:32;;;;;;;;;9.60;9.60;;;;;16.09;19.95;98391.41;5049073;28;8833;-81
2023/03/14 10:46:09;;;;;;;;;11.00;9.80;;;;;16.23;19.36;98381.66;5048853;28;8837;-82
2023/03/14 10:48:58;;;;;;;;;10.80;10.80;;;;;16.21;19.74;98399.44;5049366;28;8860;-81
2023/03/14 10:51:29;;;;;;;;;9.80;9.80;;;;;16.19;19.82;98387.22;5048857;28;8841;-83
2023/03/14 10:54:02;;;;;;;;;11.00;11.00;;;;;16.28;19.71;98378.69;5048883;28;8848;-80
2023/03/14 10:56:35;;;;;;;;;11.20;11.20;;;;;16.46;19.48;98371.41;5048496;28;9609;-82
2023/03/14 10:59:12;;;;;;;;;12.20;11.60;;;;;16.39;19.55;98372.72;5048678;28;8840;-80
2023/03/14 11:01:49;;;;;;;;;11.00;9.60;;;;;16.63;19.77;98358.88;5049602;28;8845;-82
2023/03/14 11:04:36;;;;;;;;;11.00;11.00;;;;;16.59;19.33;98358.22;5065111;28;8845;-81
2023/03/14 11:07:10;;;;;;;;;12.60;11.40;;;;;16.67;19.50;98352.41;5048305;28;8877;-83
2023/03/14 11:09:48;;;;;;;;;9.20;9.00;;;;;16.71;19.44;98357.41;5049844;28;8861;-83
2023/03/14 11:12:33;;;;;;;;;9.00;9.00;;;;;16.71;19.28;98348.59;5048289;28;8877;-83
2023/03/14 11:15:10;;;;;;;;;12.40;12.00;;;;;16.65;19.30;98335.75;5047807;28;8883;-83
2023/03/14 11:17:53;;;;;;;;;8.60;8.00;;;;;16.84;19.33;98338.03;5033070;28;8844;-80
2023/03/14 11:20:34;;;;;;;;;7.60;7.60;;;;;16.80;18.75;98334.72;5048608;28;8852;-82
2023/03/14 11:23:08;;;;;;;;;8.60;8.60;;;;;16.74;18.72;98319.22;5048002;28;9072;-81
2023/03/14 11:25:45;;;;;;;;;10.80;10.00;;;;;16.77;18.89;98330.44;5050438;28;8887;-81
2023/03/14 11:28:19;;;;;;;;;12.40;11.40;;;;;16.86;18.58;98310.44;5050931;28;8880;-82
2023/03/14 11:30:53;;;;;;;;;11.40;9.60;;;;;16.96;18.71;98300.03;5008886;28;8861;-83
2023/03/14 11:33:28;;;;;;;;;5.00;5.00;;;;;17.15;18.85;98287.22;5024980;28;8886;-81
2023/03/14 11:36:04;;;;;;;;;11.20;8.80;;;;;17.27;19.10;98287.34;5043198;28;8945;-84
2023/03/14 11:38:38;;;;;;;;;10.60;10.60;;;;;17.48;19.15;98280.56;4946795;28;8844;-82
2023/03/14 11:41:15;;;;;;;;;12.40;10.00;;;;;17.65;18.98;98274.06;5009974;28;8852;-82
2023/03/14 11:43:55;;;;;;;;;13.20;11.40;;;;;17.55;18.83;98268.56;5027062;28;8860;-83
2023/03/14 11:46:29;;;;;;;;;13.80;10.60;;;;;17.39;18.77;98260.81;5044659;28;8894;-83
2023/03/14 11:49:07;;;;;;;;;11.60;11.20;;;;;17.60;18.60;98252.28;5030452;28;8938;-82
2023/03/14 11:51:39;;;;;;;;;12.40;11.80;;;;;17.44;18.82;98257.84;5032511;28;8887;-83
2023/03/14 11:54:16;;;;;;;;;12.60;11.20;;;;;17.57;18.85;98247.19;5027280;28;8876;-83
2023/03/14 11:56:51;;;;;;;;;11.80;10.40;;;;;17.44;18.51;98247.22;5034074;28;8890;-81
2023/03/14 11:59:25;;;;;;;;;12.00;12.00;;;;;17.38;18.68;98242.31;5039658;28;8881;-84
2023/03/14 12:02:00;;;;;;;;;10.00;9.20;;;;;17.62;18.60;98236.25;5023420;28;8862;-86
2023/03/14 12:04:56;;;;;;;;;14.80;13.00;;;;;17.78;18.49;98220.91;4987461;28;9068;-82
2023/03/14 12:07:35;;;;;;;;;9.00;9.00;;;;;17.87;18.48;98212.28;4943429;28;8863;-84
2023/03/14 12:10:05;;;;;;;;;11.00;11.00;;;;;17.71;18.76;98212.50;4967891;28;8867;-81
2023/03/14 12:12:35;;;;;;;;;12.20;12.20;;;;;17.86;18.54;98207.91;4952024;28;8894;-82
2023/03/14 12:15:06;;;;;;;;;11.80;11.00;;;;;18.04;18.50;98196.91;4967723;28;8852;-83
2023/03/14 12:17:39;;;;;;;;;9.40;9.40;;;;;17.93;18.38;98192.34;4969257;28;9846;-86
2023/03/14 12:20:18;;;;;;;;;9.80;9.40;;;;;17.96;18.42;98200.09;4970588;28;8985;-85
2023/03/14 12:22:51;;;;;;;;;12.00;10.60;;;;;18.02;18.52;98189.00;4970517;28;8891;-82
2023/03/14 12:25:21;;;;;;;;;11.60;10.80;;;;;18.12;18.55;98186.56;4970634;28;8863;-85
2023/03/14 12:28:18;;;;;;;;;13.00;11.60;;;;;18.39;18.49;98182.81;4970388;28;8891;-84
2023/03/14 12:30:47;;;;;;;;;12.20;12.20;;;;;18.31;18.12;98173.59;4989902;28;8870;-85
2023/03/14 12:33:28;;;;;;;;;9.80;9.80;;;;;18.39;18.26;98156.22;4973987;28;9665;-83
2023/03/14 12:36:13;;;;;;;;;9.80;9.80;;;;;18.53;18.30;98148.88;4990403;28;8868;-82